createdAt,value
2023-03-26T00:00:54.215Z,1.70
2023-03-26T00:03:20.966Z,1.48
2023-03-26T00:08:19.475Z,1.02
2023-03-26T00:10:48.080Z,1.00
2023-03-26T00:15:40.935Z,1.45
2023-03-26T00:20:41.525Z,0.95
2023-03-26T00:23:10.335Z,1.23
2023-03-26T00:25:39.185Z,1.45
2023-03-26T00:28:10.617Z,1.08
2023-03-26T00:30:41.787Z,1.20
2023-03-26T00:33:17.331Z,1.27
2023-03-26T00:35:46.897Z,1.10
2023-03-26T00:38:17.739Z,1.13
2023-03-26T00:40:47.969Z,1.38
2023-03-26T00:43:20.587Z,1.23
2023-03-26T00:45:47.883Z,1.40
2023-03-26T00:48:17.224Z,1.15
2023-03-26T00:50:46.851Z,1.50
2023-03-26T00:53:14.156Z,1.08
2023-03-26T00:55:41.463Z,1.35
2023-03-26T00:58:12.775Z,1.35
2023-03-26T01:00:46.786Z,1.05
2023-03-26T01:03:24.809Z,1.23
2023-03-26T01:06:08.017Z,1.27
2023-03-26T01:08:40.018Z,1.08
2023-03-26T01:11:13.986Z,1.25
2023-03-26T01:13:46.400Z,1.17
2023-03-26T01:16:20.640Z,1.60
2023-03-26T01:18:48.577Z,1.30
2023-03-26T01:21:22.580Z,1.40
2023-03-26T01:23:59.722Z,1.15
2023-03-26T01:26:38.970Z,1.13
2023-03-26T01:29:14.198Z,1.70
2023-03-26T01:31:48.524Z,0.85
2023-03-26T01:34:30.661Z,1.40
2023-03-26T01:37:05.869Z,1.40
2023-03-26T01:39:39.014Z,1.25
2023-03-26T01:42:16.162Z,1.85
2023-03-26T01:44:52.700Z,1.20
2023-03-26T01:47:21.898Z,1.20
2023-03-26T01:49:50.898Z,1.05
2023-03-26T01:52:22.325Z,1.08
2023-03-26T01:54:49.043Z,1.40
2023-03-26T01:57:18.506Z,1.27
2023-03-26T02:00:07.056Z,1.60
2023-03-26T02:02:55.024Z,1.33
2023-03-26T02:05:29.420Z,1.10
2023-03-26T02:08:05.424Z,1.23
2023-03-26T02:10:38.153Z,1.13
2023-03-26T02:13:07.576Z,1.40
2023-03-26T02:15:36.473Z,1.05
2023-03-26T02:18:04.101Z,1.35
2023-03-26T02:20:34.006Z,1.50
2023-03-26T02:23:03.020Z,1.15
2023-03-26T02:25:30.949Z,1.10
2023-03-26T02:28:00.740Z,1.60
2023-03-26T02:30:29.902Z,1.60
2023-03-26T02:32:59.983Z,1.33
2023-03-26T02:35:36.582Z,1.10
2023-03-26T02:38:03.556Z,1.35
2023-03-26T02:40:32.649Z,1.30
2023-03-26T02:43:01.924Z,1.25
2023-03-26T02:45:33.611Z,1.05
2023-03-26T02:48:08.602Z,1.20
2023-03-26T02:51:10.208Z,1.40
2023-03-26T02:56:39.557Z,1.10
2023-03-26T02:59:17.055Z,1.00
2023-03-26T03:01:46.850Z,1.70
2023-03-26T03:04:18.019Z,1.40
2023-03-26T03:06:52.925Z,1.30
2023-03-26T03:09:22.389Z,1.40
2023-03-26T03:12:29.844Z,2.10
2023-03-26T03:14:58.795Z,1.30
2023-03-26T03:17:25.342Z,1.30
2023-03-26T03:19:54.477Z,1.60
2023-03-26T03:24:51.946Z,1.15
2023-03-26T03:27:22.306Z,1.20
2023-03-26T03:29:56.767Z,0.90
2023-03-26T03:32:41.853Z,1.55
2023-03-26T03:35:09.832Z,1.10
2023-03-26T03:37:36.976Z,1.38
2023-03-26T03:40:11.089Z,1.17
2023-03-26T03:42:38.865Z,0.90
2023-03-26T03:45:09.050Z,1.27
2023-03-26T03:47:54.381Z,1.33
2023-03-26T03:50:28.299Z,1.08
2023-03-26T03:53:18.602Z,2.15
2023-03-26T03:55:54.898Z,1.45
2023-03-26T03:58:28.417Z,1.25
2023-03-26T04:01:04.448Z,1.20
2023-03-26T04:03:50.309Z,1.20
2023-03-26T04:06:20.102Z,1.10
2023-03-26T04:08:52.043Z,1.40
2023-03-26T04:11:18.902Z,1.27
2023-03-26T04:14:20.653Z,1.00
2023-03-26T04:16:59.509Z,1.17
2023-03-26T04:19:31.163Z,1.23
2023-03-26T04:22:02.619Z,1.10
2023-03-26T04:24:41.839Z,1.40
2023-03-26T04:27:31.465Z,1.20
2023-03-26T04:30:20.705Z,1.30
2023-03-26T04:32:58.386Z,1.10
2023-03-26T04:35:26.582Z,1.20
2023-03-26T04:37:56.258Z,0.98
2023-03-26T04:40:30.621Z,1.13
2023-03-26T04:43:18.149Z,1.70
2023-03-26T04:46:05.114Z,1.42
2023-03-26T04:48:41.057Z,1.60
2023-03-26T04:51:10.094Z,1.70
2023-03-26T04:53:39.469Z,2.60
2023-03-26T04:56:51.396Z,1.90
2023-03-26T04:59:29.910Z,1.65
2023-03-26T05:02:00.296Z,1.70
2023-03-26T05:04:36.644Z,1.60
2023-03-26T05:07:03.407Z,1.70
2023-03-26T05:09:41.473Z,1.25
2023-03-26T05:12:13.538Z,1.17
2023-03-26T05:15:13.464Z,1.23
2023-03-26T05:18:06.299Z,1.17
2023-03-26T05:20:49.552Z,0.85
2023-03-26T05:23:18.291Z,1.23
2023-03-26T05:25:53.688Z,1.50
2023-03-26T05:28:25.496Z,1.15
2023-03-26T05:31:01.259Z,1.65
2023-03-26T05:33:32.247Z,1.73
2023-03-26T05:36:09.210Z,2.10
2023-03-26T05:38:38.799Z,2.10
2023-03-26T05:41:08.863Z,1.80
2023-03-26T05:43:37.550Z,2.72
2023-03-26T05:46:15.511Z,2.00
2023-03-26T05:48:45.764Z,1.80
2023-03-26T05:51:15.770Z,1.45
2023-03-26T05:53:49.804Z,1.70
2023-03-26T05:56:22.142Z,2.03
2023-03-26T05:59:08.032Z,1.50
2023-03-26T06:02:00.803Z,0.82
2023-03-26T06:04:50.810Z,1.13
2023-03-26T06:07:20.426Z,1.30
2023-03-26T06:10:08.401Z,1.55
2023-03-26T06:12:38.264Z,2.00
2023-03-26T06:15:06.531Z,1.38
2023-03-26T06:17:47.893Z,1.20
2023-03-26T06:20:35.636Z,2.30
2023-03-26T06:23:11.327Z,2.03
2023-03-26T06:31:21.372Z,1.52
2023-03-26T06:33:56.995Z,1.50
2023-03-26T06:36:23.547Z,2.05
2023-03-26T06:38:50.922Z,1.52
2023-03-26T06:41:17.632Z,3.05
2023-03-26T06:44:02.303Z,2.92
2023-03-26T06:46:51.242Z,2.00
2023-03-26T06:49:45.918Z,2.72
2023-03-26T06:52:33.834Z,3.05
2023-03-26T06:55:23.222Z,3.25
2023-03-26T06:58:10.999Z,5.60
2023-03-26T07:00:56.708Z,4.03
2023-03-26T07:03:44.835Z,2.47
2023-03-26T07:06:43.807Z,1.80
2023-03-26T07:09:45.759Z,2.53
2023-03-26T07:12:30.929Z,3.38
2023-03-26T07:15:20.718Z,2.65
2023-03-26T07:18:06.440Z,3.63
2023-03-26T07:20:35.790Z,3.10
2023-03-26T07:23:02.475Z,2.25
2023-03-26T07:25:57.526Z,2.72
2023-03-26T07:29:03.753Z,2.97
2023-03-26T07:32:05.334Z,2.20
2023-03-26T07:35:25.909Z,2.25
2023-03-26T07:38:37.602Z,1.38
2023-03-26T07:41:42.214Z,2.30
2023-03-26T07:44:27.644Z,2.10
2023-03-26T07:47:25.563Z,1.65
2023-03-26T07:50:21.168Z,1.60
2023-03-26T07:53:11.211Z,1.50
2023-03-26T07:56:28.321Z,3.35
2023-03-26T07:59:22.349Z,7.32
2023-03-26T08:02:09.891Z,6.75
2023-03-26T08:04:48.728Z,5.15
2023-03-26T08:07:56.159Z,3.28
2023-03-26T08:10:33.265Z,2.80
2023-03-26T08:13:26.760Z,2.92
2023-03-26T08:16:09.889Z,3.40
2023-03-26T08:18:36.701Z,3.00
2023-03-26T08:21:18.544Z,3.22
2023-03-26T08:23:50.579Z,3.80
2023-03-26T08:26:36.580Z,3.63
2023-03-26T08:31:33.996Z,2.35
2023-03-26T08:34:01.046Z,1.38
2023-03-26T08:36:30.078Z,1.70
2023-03-26T08:39:01.598Z,1.35
2023-03-26T08:41:50.751Z,2.30
2023-03-26T08:44:29.590Z,1.83
2023-03-26T08:47:23.504Z,2.13
2023-03-26T08:49:59.033Z,1.98
2023-03-26T08:52:29.035Z,1.35
2023-03-26T08:55:04.301Z,2.67
2023-03-26T09:00:13.658Z,1.50
2023-03-26T09:02:59.140Z,3.45
2023-03-26T09:07:54.645Z,2.28
2023-03-26T09:10:30.462Z,1.73
2023-03-26T09:12:59.954Z,1.92
2023-03-26T09:15:44.474Z,2.17
2023-03-26T09:18:29.753Z,2.88
2023-03-26T09:21:08.269Z,2.22
2023-03-26T09:23:36.910Z,2.70
2023-03-26T09:26:15.087Z,1.50
2023-03-26T09:29:00.410Z,1.90
2023-03-26T09:31:32.435Z,1.42
2023-03-26T09:34:17.798Z,1.52
2023-03-26T09:36:47.816Z,1.05
2023-03-26T09:39:14.997Z,0.60
2023-03-26T09:44:30.008Z,0.50
2023-03-26T09:47:18.295Z,0.70
2023-03-26T09:49:52.791Z,0.70
2023-03-26T09:52:25.488Z,0.50
2023-03-26T09:55:02.618Z,0.60
2023-03-26T09:57:35.504Z,1.10
2023-03-26T10:00:21.062Z,0.82
2023-03-26T10:02:47.814Z,0.85
2023-03-26T10:05:16.595Z,0.82
2023-03-26T10:07:51.888Z,0.60
2023-03-26T10:10:42.886Z,0.80
2023-03-26T10:13:33.441Z,0.70
2023-03-26T10:16:05.306Z,0.77
2023-03-26T10:18:37.735Z,0.80
2023-03-26T10:21:06.202Z,0.77
2023-03-26T10:23:41.267Z,0.60
2023-03-26T10:26:11.158Z,0.20
2023-03-26T10:28:56.839Z,0.52
2023-03-26T10:31:36.251Z,0.63
2023-03-26T10:34:28.874Z,0.80
2023-03-26T10:37:18.463Z,0.90
2023-03-26T10:39:51.240Z,0.98
2023-03-26T10:42:17.776Z,0.90
2023-03-26T10:45:06.923Z,0.93
2023-03-26T10:47:45.945Z,1.23
2023-03-26T10:50:23.694Z,0.98
2023-03-26T10:52:56.708Z,1.00
2023-03-26T10:55:28.404Z,0.77
2023-03-26T10:58:17.442Z,0.70
2023-03-26T11:01:00.840Z,0.80
2023-03-26T11:03:41.745Z,0.90
2023-03-26T11:06:20.564Z,1.10
2023-03-26T11:08:53.936Z,1.20
2023-03-26T11:11:20.575Z,1.25
2023-03-26T11:14:34.803Z,0.90
2023-03-26T11:17:39.683Z,1.00
2023-03-26T11:20:16.810Z,0.90
2023-03-26T11:22:48.699Z,0.80
2023-03-26T11:25:33.805Z,0.98
2023-03-26T11:28:21.217Z,0.93
2023-03-26T11:31:20.420Z,0.77
2023-03-26T11:33:50.876Z,0.70
2023-03-26T11:36:29.135Z,0.70
2023-03-26T11:39:01.299Z,1.00
2023-03-26T11:41:31.469Z,0.60
2023-03-26T11:44:19.044Z,0.85
2023-03-26T11:46:46.711Z,0.70
2023-03-26T11:49:14.766Z,0.70
2023-03-26T11:51:42.750Z,0.70
2023-03-26T11:54:14.896Z,0.65
2023-03-26T11:57:05.460Z,0.95
2023-03-26T11:59:53.115Z,0.55
2023-03-26T12:02:32.773Z,0.70
2023-03-26T12:05:31.540Z,0.55
2023-03-26T12:08:00.693Z,0.60
2023-03-26T12:10:29.557Z,0.60
2023-03-26T12:13:01.414Z,0.70
2023-03-26T12:15:31.030Z,0.80
2023-03-26T12:17:58.314Z,0.60
2023-03-26T12:20:25.080Z,0.70
2023-03-26T12:22:53.139Z,0.85
2023-03-26T12:25:21.243Z,0.90
2023-03-26T12:27:52.792Z,0.93
2023-03-26T12:30:20.403Z,0.73
2023-03-26T12:32:47.908Z,0.75
2023-03-26T12:37:48.958Z,0.57
2023-03-26T12:40:48.904Z,0.80
2023-03-26T12:44:48.306Z,0.60
2023-03-26T12:47:56.474Z,0.68
2023-03-26T12:49:19.019Z,0.80
2023-03-26T12:51:48.239Z,0.52
2023-03-26T12:54:29.505Z,0.60
2023-03-26T12:57:16.963Z,0.57
2023-03-26T13:00:07.039Z,0.73
2023-03-26T13:02:33.872Z,0.50
2023-03-26T13:05:07.210Z,0.73
2023-03-26T13:07:40.092Z,0.70
2023-03-26T13:12:41.054Z,0.50
2023-03-26T13:15:16.592Z,0.40
2023-03-26T13:17:43.158Z,0.50
2023-03-26T13:20:33.064Z,0.60
2023-03-26T13:23:13.542Z,0.40
2023-03-26T13:25:48.028Z,0.60
2023-03-26T13:30:46.798Z,0.60
2023-03-26T13:33:21.138Z,0.70
2023-03-26T13:35:47.879Z,0.73
2023-03-26T13:38:14.664Z,0.50
2023-03-26T13:40:50.629Z,0.65
2023-03-26T13:43:17.335Z,0.52
2023-03-26T13:45:52.272Z,0.68
2023-03-26T13:50:51.238Z,0.60
2023-03-26T13:53:23.125Z,0.50
2023-03-26T13:55:57.554Z,0.80
2023-03-26T13:58:24.510Z,0.60
2023-03-26T14:00:55.207Z,0.80
2023-03-26T14:03:24.782Z,1.30
2023-03-26T14:05:54.296Z,1.52
2023-03-26T14:08:38.408Z,1.00
2023-03-26T14:11:11.172Z,4.50
2023-03-26T14:13:49.076Z,1.58
2023-03-26T14:16:23.952Z,0.93
2023-03-26T14:19:04.892Z,0.90
2023-03-26T14:21:50.199Z,2.40
2023-03-26T14:27:05.515Z,0.68
2023-03-26T14:29:36.695Z,0.50
2023-03-26T14:32:10.621Z,5.20
2023-03-26T14:34:51.906Z,0.80
2023-03-26T14:37:33.568Z,0.98
2023-03-26T14:40:21.494Z,0.73
2023-03-26T14:42:56.756Z,0.60
2023-03-26T14:45:35.202Z,0.80
2023-03-26T14:48:16.954Z,0.80
2023-03-26T14:50:54.584Z,0.60
2023-03-26T14:53:29.460Z,0.88
2023-03-26T14:55:56.739Z,0.77
2023-03-26T14:58:28.491Z,1.50
2023-03-26T15:01:14.984Z,0.70
2023-03-26T15:04:02.658Z,0.77
2023-03-26T15:06:46.886Z,0.63
2023-03-26T15:09:17.500Z,0.70
2023-03-26T15:11:53.521Z,0.50
2023-03-26T15:14:45.933Z,0.70
2023-03-26T15:17:30.098Z,0.88
2023-03-26T15:20:11.689Z,0.90
2023-03-26T15:22:53.586Z,0.70
2023-03-26T15:25:39.040Z,0.60
2023-03-26T15:28:19.931Z,0.73
2023-03-26T15:30:55.066Z,0.70
2023-03-26T15:33:27.207Z,0.95
2023-03-26T15:36:09.066Z,0.47
2023-03-26T15:38:56.734Z,0.60
2023-03-26T15:41:31.565Z,0.60
2023-03-26T15:46:51.234Z,0.70
2023-03-26T15:49:26.796Z,0.63
2023-03-26T15:51:59.176Z,0.30
2023-03-26T15:54:29.176Z,1.20
2023-03-26T15:56:55.891Z,0.90
2023-03-26T15:59:28.381Z,0.50
2023-03-26T16:02:04.606Z,0.65
2023-03-26T16:04:51.679Z,1.33
2023-03-26T16:07:23.978Z,0.40
2023-03-26T16:09:50.756Z,0.55
2023-03-26T16:12:33.631Z,0.98
2023-03-26T16:15:07.248Z,0.73
2023-03-26T16:17:53.901Z,0.70
2023-03-26T16:20:31.508Z,1.13
2023-03-26T16:23:03.713Z,1.50
2023-03-26T16:25:38.372Z,1.30
2023-03-26T16:28:10.503Z,0.82
2023-03-26T16:30:42.081Z,0.80
2023-03-26T16:33:17.679Z,0.73
2023-03-26T16:35:50.499Z,0.98
2023-03-26T16:41:05.425Z,1.10
2023-03-26T16:43:40.950Z,1.05
2023-03-26T16:46:10.551Z,0.75
2023-03-26T16:48:37.100Z,0.82
2023-03-26T16:51:22.060Z,0.63
2023-03-26T16:54:11.150Z,0.65
2023-03-26T16:56:37.875Z,0.57
2023-03-26T16:59:23.260Z,3.35
2023-03-26T17:01:57.871Z,0.60
2023-03-26T17:04:30.848Z,0.68
2023-03-26T17:07:03.414Z,2.25
2023-03-26T17:09:41.498Z,1.10
2023-03-26T17:12:19.151Z,0.55
2023-03-26T17:14:53.756Z,0.75
2023-03-26T17:17:52.451Z,0.80
2023-03-26T17:20:33.233Z,0.55
2023-03-26T17:23:04.514Z,0.55
2023-03-26T17:26:00.841Z,0.50
2023-03-26T17:28:52.351Z,0.65
2023-03-26T17:31:32.642Z,0.80
2023-03-26T17:34:17.881Z,0.70
2023-03-26T17:36:55.253Z,0.50
2023-03-26T17:39:40.370Z,0.47
2023-03-26T17:42:24.996Z,0.40
2023-03-26T17:44:55.791Z,0.40
2023-03-26T17:47:27.923Z,0.60
2023-03-26T17:50:14.834Z,0.40
2023-03-26T17:52:48.219Z,0.40
2023-03-26T17:55:20.027Z,0.30
2023-03-26T17:57:52.363Z,0.38
2023-03-26T18:00:27.083Z,0.63
2023-03-26T18:03:16.962Z,0.52
2023-03-26T18:05:47.226Z,0.22
2023-03-26T18:08:29.124Z,0.20
2023-03-26T18:11:08.103Z,0.50
2023-03-26T18:13:34.688Z,1.10
2023-03-26T18:16:20.936Z,0.50
2023-03-26T18:18:50.478Z,1.38
2023-03-26T18:21:26.295Z,1.55
2023-03-26T18:23:53.467Z,0.80
2023-03-26T18:26:36.240Z,0.35
2023-03-26T18:29:31.418Z,0.20
2023-03-26T18:32:03.059Z,0.50
2023-03-26T18:34:36.482Z,0.50
2023-03-26T18:37:15.212Z,0.45
2023-03-26T18:39:59.020Z,0.52
2023-03-26T18:42:29.736Z,0.30
2023-03-26T18:47:29.516Z,0.50
2023-03-26T18:49:58.866Z,0.50
2023-03-26T18:52:27.246Z,0.70
2023-03-26T18:54:54.242Z,0.50
2023-03-26T18:57:23.008Z,1.10
2023-03-26T18:59:51.280Z,0.40
2023-03-26T19:02:22.420Z,1.25
2023-03-26T19:04:54.466Z,3.95
2023-03-26T19:07:22.582Z,2.83
2023-03-26T19:09:56.216Z,4.90
2023-03-26T19:12:25.694Z,5.80
2023-03-26T19:15:07.776Z,5.60
2023-03-26T19:17:38.795Z,3.47
2023-03-26T19:20:12.052Z,1.75
2023-03-26T19:22:42.432Z,0.82
2023-03-26T19:25:26.122Z,0.68
2023-03-26T19:27:55.089Z,0.90
2023-03-26T19:30:31.957Z,0.75
2023-03-26T19:33:13.266Z,0.55
2023-03-26T19:35:44.200Z,0.40
2023-03-26T19:38:23.331Z,0.30
2023-03-26T19:40:55.805Z,0.82
2023-03-26T19:43:23.723Z,0.40
2023-03-26T19:45:59.365Z,0.70
2023-03-26T19:48:46.196Z,0.30
2023-03-26T19:51:20.124Z,0.40
2023-03-26T19:53:49.609Z,0.40
2023-03-26T19:56:18.695Z,0.50
2023-03-26T19:58:45.892Z,0.60
2023-03-26T20:01:19.009Z,0.50
2023-03-26T20:03:46.989Z,0.63
2023-03-26T20:06:17.029Z,0.70
2023-03-26T20:08:51.402Z,0.70
2023-03-26T20:11:23.262Z,0.63
2023-03-26T20:13:52.954Z,0.63
2023-03-26T20:16:34.255Z,0.57
2023-03-26T20:19:04.673Z,0.77
2023-03-26T20:21:34.850Z,0.52
2023-03-26T20:24:01.658Z,0.80
2023-03-26T20:26:28.304Z,0.60
2023-03-26T20:29:00.016Z,0.50
2023-03-26T20:31:30.188Z,0.60
2023-03-26T20:33:57.582Z,0.70
2023-03-26T20:36:34.257Z,0.57
2023-03-26T20:39:05.654Z,0.70
2023-03-26T20:41:33.756Z,1.00
2023-03-26T20:44:00.642Z,0.70
2023-03-26T20:46:30.900Z,0.75
2023-03-26T20:49:00.832Z,0.75
2023-03-26T20:51:28.714Z,0.80
2023-03-26T20:53:56.171Z,0.70
2023-03-26T20:56:23.515Z,0.50
2023-03-26T20:59:09.893Z,0.45
2023-03-26T21:01:42.822Z,0.40
2023-03-26T21:04:09.367Z,0.30
2023-03-26T21:06:38.698Z,0.50
2023-03-26T21:09:15.946Z,0.40
2023-03-26T21:12:01.549Z,0.40
2023-03-26T21:16:57.256Z,0.40
2023-03-26T21:19:24.259Z,0.55
2023-03-26T21:21:53.561Z,0.55
2023-03-26T21:24:39.137Z,0.50
2023-03-26T21:27:29.996Z,0.30
2023-03-26T21:29:57.936Z,0.70
2023-03-26T21:32:27.928Z,0.55
2023-03-26T21:34:59.209Z,0.40
2023-03-26T21:37:28.702Z,0.40
2023-03-26T21:39:55.374Z,0.75
2023-03-26T21:42:26.848Z,0.80
2023-03-26T21:44:53.681Z,0.50
2023-03-26T21:47:23.358Z,0.35
2023-03-26T21:49:52.486Z,0.60
2023-03-26T21:52:19.712Z,0.35
2023-03-26T21:54:46.613Z,0.65
2023-03-26T21:57:22.220Z,0.43
2023-03-26T22:00:16.081Z,0.50
2023-03-26T22:03:12.356Z,0.43
2023-03-26T22:06:01.560Z,0.52
2023-03-26T22:08:36.990Z,0.60
2023-03-26T22:11:03.582Z,0.50
2023-03-26T22:15:57.754Z,0.60
2023-03-26T22:18:30.003Z,0.90
2023-03-26T22:20:59.866Z,0.63
2023-03-26T22:23:34.432Z,0.55
2023-03-26T22:26:01.080Z,0.20
2023-03-26T22:30:57.236Z,0.65
2023-03-26T22:33:28.935Z,0.40
2023-03-26T22:35:55.738Z,0.63
2023-03-26T22:38:24.652Z,0.50
2023-03-26T22:40:55.880Z,0.40
2023-03-26T22:43:25.010Z,0.30
2023-03-26T22:45:55.013Z,0.40
2023-03-26T22:48:23.460Z,0.63
2023-03-26T22:51:03.320Z,0.60
2023-03-26T22:53:30.638Z,0.35
2023-03-26T22:56:00.393Z,0.60
2023-03-26T22:58:32.653Z,0.43
2023-03-26T23:01:08.352Z,0.30
2023-03-26T23:03:40.229Z,0.40
2023-03-26T23:06:10.618Z,0.40
2023-03-26T23:08:39.828Z,0.60
2023-03-26T23:11:09.506Z,0.68
2023-03-26T23:13:36.717Z,2.38
2023-03-26T23:16:10.440Z,1.15
2023-03-26T23:18:39.492Z,1.77
2023-03-26T23:21:16.505Z,0.85
2023-03-26T23:23:45.562Z,0.82
2023-03-26T23:26:12.553Z,0.73
2023-03-26T23:28:44.588Z,0.60
2023-03-26T23:31:14.129Z,0.90
2023-03-26T23:33:46.022Z,0.85
2023-03-26T23:36:13.918Z,0.90
2023-03-26T23:38:44.052Z,0.47
2023-03-26T23:41:19.702Z,0.80
2023-03-26T23:43:54.277Z,0.65
2023-03-26T23:46:30.658Z,0.52
2023-03-26T23:49:00.026Z,0.80
2023-03-26T23:51:32.336Z,0.73
2023-03-26T23:54:02.348Z,0.52
2023-03-26T23:56:33.788Z,0.80
2023-03-26T23:59:00.718Z,0.45
